createdAt,value
2022-09-03T06:56:15.180Z,90.84
2022-09-03T06:57:16.198Z,90.54
2022-09-03T06:58:15.019Z,90.54
2022-09-03T06:59:14.986Z,90.64
2022-09-03T07:00:14.970Z,90.50
2022-09-03T07:01:15.172Z,90.91
2022-09-03T07:02:15.090Z,91.92
2022-09-03T07:03:14.925Z,91.31
2022-09-03T07:04:14.945Z,90.70
2022-09-03T07:05:14.916Z,90.70
2022-09-03T07:06:14.909Z,90.91
2022-09-03T07:07:14.924Z,91.11
2022-09-03T07:08:14.911Z,90.91
2022-09-03T07:09:14.854Z,91.67
2022-09-03T07:10:14.834Z,91.06
2022-09-03T07:11:14.853Z,90.66
2022-09-03T07:12:14.905Z,90.45
2022-09-03T07:13:14.792Z,91.16
2022-09-03T07:14:14.857Z,90.76
2022-09-03T07:15:14.784Z,90.16
2022-09-03T07:16:14.763Z,89.30
2022-09-03T07:17:14.736Z,89.81
2022-09-03T07:18:14.753Z,90.52
2022-09-03T07:19:14.743Z,89.81
2022-09-03T07:20:14.710Z,89.40
2022-09-03T07:21:14.742Z,89.70
2022-09-03T07:22:14.670Z,89.76
2022-09-03T07:23:14.685Z,86.63
2022-09-03T07:24:14.655Z,86.83
2022-09-03T07:25:14.639Z,86.63
2022-09-03T07:26:14.658Z,87.34
2022-09-03T07:27:15.235Z,86.59
2022-09-03T07:28:14.611Z,86.19
2022-09-03T07:29:14.580Z,86.08
2022-09-03T07:30:14.568Z,85.88
2022-09-03T07:31:14.623Z,86.19
2022-09-03T08:51:57.480Z,86.66
2022-09-03T08:52:58.444Z,86.87
2022-09-03T08:53:57.294Z,86.52
2022-09-03T08:54:57.255Z,87.02
2022-09-03T08:55:57.183Z,86.32
2022-09-03T08:56:57.234Z,85.62
2022-09-03T08:57:57.176Z,85.82
2022-09-03T08:58:57.259Z,85.92
2022-09-03T08:59:57.156Z,85.92
2022-09-03T09:00:57.181Z,85.92
2022-09-03T09:01:57.311Z,86.68
2022-09-03T09:02:57.142Z,86.08
2022-09-03T09:03:57.136Z,85.58
2022-09-03T09:04:57.102Z,84.77
2022-09-03T09:05:57.035Z,84.88
2022-09-03T09:06:57.032Z,84.07
2022-09-03T09:07:57.004Z,83.87
2022-09-03T09:08:57.023Z,83.76
2022-09-03T09:09:56.990Z,83.33
2022-09-03T09:10:57.001Z,83.63
2022-09-03T09:11:56.967Z,82.72
2022-09-03T09:12:56.963Z,83.17
2022-09-03T09:13:56.954Z,83.57
2022-09-03T09:14:56.960Z,82.97
2022-09-03T09:15:57.050Z,82.97
2022-09-03T09:16:56.910Z,82.56
2022-09-03T09:17:56.899Z,82.46
2022-09-03T09:18:56.883Z,82.76
2022-09-03T09:19:56.851Z,82.26
2022-09-03T09:20:56.841Z,82.16
2022-09-03T09:21:56.867Z,82.16
2022-09-03T09:22:56.855Z,81.35
2022-09-03T09:23:56.840Z,81.65
2022-09-03T09:24:56.791Z,82.76
2022-09-03T09:25:56.835Z,82.66
2022-09-03T09:26:56.795Z,81.76
2022-09-03T09:27:56.858Z,81.96
2022-09-03T09:28:56.843Z,82.10
2022-09-03T09:29:56.731Z,81.29
2022-09-03T09:30:56.852Z,81.79
2022-09-03T09:31:56.701Z,81.99
2022-09-03T09:32:56.761Z,81.79
2022-09-03T09:33:56.696Z,81.90
2022-09-03T09:34:56.679Z,82.54
2022-09-03T09:35:56.642Z,82.34
2022-09-03T09:36:57.430Z,82.54
2022-09-03T09:37:56.617Z,83.04
2022-09-03T09:38:56.608Z,83.04
2022-09-03T09:39:56.699Z,83.65
2022-09-03T09:40:56.599Z,84.15
2022-09-03T09:41:56.592Z,85.05
2022-09-03T09:42:56.557Z,85.36
2022-09-03T09:43:56.594Z,85.80
2022-09-03T09:44:56.557Z,86.30
2022-09-03T09:45:56.607Z,86.71
2022-09-03T09:46:56.550Z,87.01
2022-09-03T09:47:56.483Z,87.21
2022-09-03T09:48:56.482Z,87.62
2022-09-03T09:49:56.473Z,87.92
2022-09-03T09:50:56.455Z,88.02
2022-09-03T09:51:57.054Z,87.01
2022-09-03T09:52:59.134Z,87.35
2022-09-03T09:53:56.422Z,87.65
2022-09-03T09:54:56.367Z,87.05
2022-09-03T09:55:56.390Z,87.25
2022-09-03T09:56:56.384Z,87.35
2022-09-03T09:57:56.363Z,87.85
2022-09-03T09:58:56.332Z,88.16
2022-09-03T14:17:48.631Z,70.03
2022-09-03T14:18:49.187Z,67.61
2022-09-03T14:19:49.102Z,68.62
2022-09-03T14:20:48.979Z,68.41
2022-09-03T14:21:48.138Z,68.02
2022-09-03T14:22:47.895Z,67.61
2022-09-03T14:23:47.943Z,69.22
2022-09-03T14:24:47.905Z,68.62
2022-09-03T14:25:48.093Z,69.02
2022-09-03T14:26:47.937Z,68.92
2022-09-03T14:27:47.925Z,66.91
2022-09-03T14:28:47.845Z,68.32
2022-09-03T14:29:48.131Z,67.91
2022-09-03T14:30:47.861Z,67.41
2022-09-03T14:31:48.866Z,65.91
2022-09-03T14:32:47.843Z,66.81
2022-09-03T14:33:48.090Z,66.61
2022-09-03T14:34:47.747Z,66.11
2022-09-03T14:35:48.019Z,67.71
2022-09-03T14:36:59.970Z,67.01
2022-09-03T14:38:08.966Z,68.21
2022-09-03T14:38:48.526Z,67.55
2022-09-03T14:40:21.469Z,67.85
2022-09-03T14:40:50.934Z,68.45
2022-09-03T14:41:48.031Z,69.65
2022-09-03T14:43:18.002Z,69.56
2022-09-03T14:44:20.267Z,70.76
2022-09-03T14:44:48.484Z,70.96
2022-09-03T14:45:48.225Z,70.36
2022-09-03T14:46:48.037Z,71.87
2022-09-03T14:47:48.360Z,70.86
2022-09-03T14:49:00.292Z,72.47
2022-09-03T14:50:09.417Z,71.26
2022-09-03T14:50:47.618Z,71.67
2022-09-03T14:51:50.489Z,72.87
2022-09-03T14:52:54.991Z,73.18
2022-09-03T14:53:58.497Z,73.98
2022-09-03T14:54:48.114Z,73.68
2022-09-03T14:55:47.568Z,73.54
2022-09-03T14:57:12.902Z,73.04
2022-09-03T14:57:52.089Z,73.24
2022-09-03T14:59:10.513Z,72.24
2022-09-03T14:59:48.226Z,72.64
2022-09-03T15:00:49.048Z,71.73
2022-09-03T15:01:47.664Z,72.03
2022-09-03T15:02:47.473Z,73.24
2022-09-03T15:03:48.137Z,71.83
2022-09-03T15:04:49.399Z,72.94
2022-09-03T15:05:53.366Z,71.33
2022-09-03T15:06:51.898Z,72.13
2022-09-03T15:07:52.092Z,72.74
2022-09-03T15:08:47.695Z,72.84
2022-09-03T15:10:14.598Z,73.54
2022-09-03T15:10:47.803Z,73.94
2022-09-03T15:11:48.289Z,73.64
2022-09-03T15:12:57.393Z,73.94
2022-09-03T15:13:57.578Z,74.04
2022-09-03T15:14:56.457Z,73.94
2022-09-03T15:15:47.269Z,73.94
2022-09-03T15:16:47.289Z,73.04
